Date,TemperatureHighF,TemperatureAvgF,TemperatureLowF,DewpointHighF,DewpointAvgF,DewpointLowF,HumidityHigh,HumidityAvg,HumidityLow,PressureMaxIn,PressureMinIn,WindSpeedMaxMPH,WindSpeedAvgMPH,GustSpeedMaxMPH,PrecipitationSumIn
2013-9-1,68,62,55,67,59,53,98,90,77,30.04,29.81,11,1,12,0.00
2013-9-2,70,59,49,60,53,48,98,84,60,30.14,30.03,8,0,8,0.00
2013-9-3,78,64,52,69,60,50,97,87,67,30.07,29.97,5,0,5,0.00
2013-9-4,84,71,60,75,67,59,98,88,70,30.11,29.99,5,0,5,0.00
2013-9-5,85,72,61,73,66,58,91,82,60,30.15,30.02,6,0,7,0.00
2013-9-6,89,76,66,77,69,64,96,81,58,30.03,29.79,6,0,7,0.00
2013-9-7,89,77,67,77,71,66,99,84,57,29.96,29.83,6,0,7,0.00
2013-9-8,73,68,63,70,65,61,94,89,82,30.00,29.83,7,0,8,0.00
2013-9-9,86,74,66,78,70,63,98,87,61,29.83,29.59,7,1,7,0.06
2013-9-10,80,71,66,68,65,61,98,82,54,29.98,29.78,7,1,7,0.04
2013-9-11,83,70,59,66,58,50,95,71,36,30.12,29.98,8,0,9,0.00
2013-9-12,74,61,49,58,52,48,95,76,51,30.26,30.12,10,0,10,0.00
2013-9-13,72,58,45,55,50,44,98,76,47,30.27,30.04,5,0,5,0.00
2013-9-14,59,56,50,58,53,46,96,91,78,30.05,29.81,5,0,5,0.44
2013-9-15,68,58,48,60,55,46,98,90,67,30.33,29.86,7,0,7,0.36
2013-9-16,66,54,44,52,48,43,98,80,46,30.41,30.20,8,0,8,0.00
2013-9-17,64,57,50,59,55,49,96,91,82,30.20,29.87,11,1,11,0.00
2013-9-18,84,71,59,74,68,58,99,88,71,29.87,29.57,10,0,11,0.00
2013-9-19,73,68,57,70,63,52,98,85,58,29.88,29.56,9,1,9,0.71
2013-9-20,59,54,47,54,50,45,96,88,68,29.99,29.86,8,2,8,0.04
2013-9-21,65,51,40,52,46,39,98,83,53,30.06,29.89,4,0,5,0.01
2013-9-22,81,63,50,63,53,47,90,72,42,29.91,29.70,10,1,11,0.00
2013-9-23,76,65,57,60,55,52,85,72,48,29.85,29.73,12,1,12,0.00
2013-9-24,71,60,55,60,55,51,96,82,64,29.94,29.85,8,0,8,0.00
2013-9-25,75,62,50,60,54,49,98,79,48,29.93,29.76,12,0,12,0.00
2013-9-26,83,69,59,65,60,55,88,73,51,29.81,29.68,7,1,16,0.00
2013-9-27,77,68,59,69,64,55,95,86,71,29.77,29.66,15,0,15,0.10
2013-9-28,61,55,50,55,50,44,97,84,57,29.93,29.62,11,2,11,0.18
2013-9-29,76,59,45,55,48,42,92,69,40,29.94,29.66,6,0,8,0.00
2013-9-30,80,67,56,59,53,47,77,61,40,29.67,29.49,7,0,8,0.00